sensor_id;sensor_type;location;lat;lon;timestamp;P1;durP1;ratioP1;P2;durP2;ratioP2
64799;SDS011;51233;51.982;4.594;2023-03-14T00:02:53;12.20;;;2.80;;
64799;SDS011;51233;51.982;4.594;2023-03-14T00:05:53;14.20;;;3.70;;
64799;SDS011;51233;51.982;4.594;2023-03-14T00:08:54;13.90;;;3.20;;
64799;SDS011;51233;51.982;4.594;2023-03-14T00:11:54;14.87;;;3.00;;
64799;SDS011;51233;51.982;4.594;2023-03-14T00:14:57;12.98;;;3.50;;
64799;SDS011;51233;51.982;4.594;2023-03-14T00:17:59;11.55;;;2.85;;
64799;SDS011;51233;51.982;4.594;2023-03-14T00:20:59;12.20;;;2.45;;
64799;SDS011;51233;51.982;4.594;2023-03-14T00:23:59;9.43;;;2.80;;
64799;SDS011;51233;51.982;4.594;2023-03-14T00:27:00;10.13;;;2.42;;
64799;SDS011;51233;51.982;4.594;2023-03-14T00:30:00;8.43;;;2.53;;
64799;SDS011;51233;51.982;4.594;2023-03-14T00:33:00;8.17;;;2.40;;
64799;SDS011;51233;51.982;4.594;2023-03-14T00:36:04;10.55;;;2.58;;
64799;SDS011;51233;51.982;4.594;2023-03-14T00:39:05;11.10;;;2.38;;
64799;SDS011;51233;51.982;4.594;2023-03-14T00:42:05;7.05;;;2.58;;
64799;SDS011;51233;51.982;4.594;2023-03-14T00:45:05;8.73;;;2.10;;
64799;SDS011;51233;51.982;4.594;2023-03-14T00:51:08;12.15;;;2.58;;
64799;SDS011;51233;51.982;4.594;2023-03-14T00:54:08;12.13;;;2.80;;
64799;SDS011;51233;51.982;4.594;2023-03-14T00:57:08;12.68;;;3.55;;
64799;SDS011;51233;51.982;4.594;2023-03-14T01:00:09;15.02;;;3.58;;
64799;SDS011;51233;51.982;4.594;2023-03-14T01:03:12;10.98;;;3.05;;
64799;SDS011;51233;51.982;4.594;2023-03-14T01:06:16;10.60;;;2.88;;
64799;SDS011;51233;51.982;4.594;2023-03-14T01:09:17;11.50;;;3.17;;
64799;SDS011;51233;51.982;4.594;2023-03-14T01:12:17;11.25;;;3.40;;
64799;SDS011;51233;51.982;4.594;2023-03-14T01:15:18;18.23;;;3.60;;
64799;SDS011;51233;51.982;4.594;2023-03-14T01:18:18;9.13;;;2.83;;
64799;SDS011;51233;51.982;4.594;2023-03-14T01:21:19;13.07;;;3.22;;
64799;SDS011;51233;51.982;4.594;2023-03-14T01:24:20;13.23;;;2.80;;
64799;SDS011;51233;51.982;4.594;2023-03-14T01:27:20;13.45;;;2.70;;
64799;SDS011;51233;51.982;4.594;2023-03-14T01:30:20;11.35;;;2.80;;
64799;SDS011;51233;51.982;4.594;2023-03-14T01:33:20;13.77;;;3.50;;
64799;SDS011;51233;51.982;4.594;2023-03-14T01:36:21;9.70;;;2.72;;
64799;SDS011;51233;51.982;4.594;2023-03-14T01:39:21;9.43;;;2.10;;
64799;SDS011;51233;51.982;4.594;2023-03-14T01:42:21;12.13;;;3.35;;
64799;SDS011;51233;51.982;4.594;2023-03-14T01:48:42;11.80;;;2.88;;
64799;SDS011;51233;51.982;4.594;2023-03-14T01:51:54;14.02;;;2.78;;
64799;SDS011;51233;51.982;4.594;2023-03-14T01:54:55;8.60;;;2.20;;
64799;SDS011;51233;51.982;4.594;2023-03-14T01:58:01;8.52;;;2.20;;
64799;SDS011;51233;51.982;4.594;2023-03-14T02:01:03;10.45;;;2.92;;
64799;SDS011;51233;51.982;4.594;2023-03-14T02:04:04;9.98;;;2.70;;
64799;SDS011;51233;51.982;4.594;2023-03-14T02:07:11;10.18;;;2.50;;
64799;SDS011;51233;51.982;4.594;2023-03-14T02:10:12;7.53;;;2.00;;
64799;SDS011;51233;51.982;4.594;2023-03-14T02:13:12;5.95;;;1.98;;
64799;SDS011;51233;51.982;4.594;2023-03-14T02:16:13;7.72;;;1.60;;
64799;SDS011;51233;51.982;4.594;2023-03-14T02:19:14;12.77;;;2.42;;
64799;SDS011;51233;51.982;4.594;2023-03-14T02:22:17;8.32;;;1.90;;
64799;SDS011;51233;51.982;4.594;2023-03-14T02:28:32;6.75;;;1.95;;
64799;SDS011;51233;51.982;4.594;2023-03-14T02:31:32;14.27;;;2.63;;
64799;SDS011;51233;51.982;4.594;2023-03-14T02:34:32;9.10;;;2.28;;
64799;SDS011;51233;51.982;4.594;2023-03-14T02:37:53;8.90;;;2.07;;
64799;SDS011;51233;51.982;4.594;2023-03-14T02:40:55;7.13;;;2.30;;
64799;SDS011;51233;51.982;4.594;2023-03-14T02:43:55;10.60;;;2.47;;
64799;SDS011;51233;51.982;4.594;2023-03-14T02:46:55;6.82;;;2.38;;
64799;SDS011;51233;51.982;4.594;2023-03-14T02:49:59;5.23;;;1.90;;
64799;SDS011;51233;51.982;4.594;2023-03-14T02:53:01;6.90;;;2.10;;
64799;SDS011;51233;51.982;4.594;2023-03-14T02:56:01;8.35;;;2.22;;
64799;SDS011;51233;51.982;4.594;2023-03-14T02:59:02;8.07;;;2.20;;
64799;SDS011;51233;51.982;4.594;2023-03-14T03:02:05;11.20;;;2.60;;
64799;SDS011;51233;51.982;4.594;2023-03-14T03:05:06;7.95;;;2.00;;
64799;SDS011;51233;51.982;4.594;2023-03-14T03:08:06;8.95;;;2.65;;
64799;SDS011;51233;51.982;4.594;2023-03-14T03:11:07;10.13;;;3.17;;
64799;SDS011;51233;51.982;4.594;2023-03-14T03:14:07;7.97;;;2.50;;
64799;SDS011;51233;51.982;4.594;2023-03-14T03:17:07;7.57;;;2.15;;
64799;SDS011;51233;51.982;4.594;2023-03-14T03:20:07;8.75;;;2.65;;
64799;SDS011;51233;51.982;4.594;2023-03-14T03:23:09;12.93;;;3.20;;
64799;SDS011;51233;51.982;4.594;2023-03-14T03:26:09;10.75;;;3.20;;
64799;SDS011;51233;51.982;4.594;2023-03-14T03:29:10;7.75;;;2.60;;
64799;SDS011;51233;51.982;4.594;2023-03-14T03:32:10;7.97;;;2.90;;
64799;SDS011;51233;51.982;4.594;2023-03-14T03:35:13;6.97;;;2.63;;
64799;SDS011;51233;51.982;4.594;2023-03-14T03:38:13;8.93;;;2.47;;
64799;SDS011;51233;51.982;4.594;2023-03-14T03:41:14;11.57;;;3.13;;
64799;SDS011;51233;51.982;4.594;2023-03-14T03:44:14;8.88;;;2.95;;
64799;SDS011;51233;51.982;4.594;2023-03-14T03:47:14;9.60;;;2.33;;
64799;SDS011;51233;51.982;4.594;2023-03-14T03:50:14;10.40;;;2.90;;
64799;SDS011;51233;51.982;4.594;2023-03-14T03:53:15;10.05;;;2.80;;
64799;SDS011;51233;51.982;4.594;2023-03-14T03:56:15;8.57;;;2.60;;
64799;SDS011;51233;51.982;4.594;2023-03-14T03:59:15;11.53;;;2.73;;
64799;SDS011;51233;51.982;4.594;2023-03-14T04:02:16;13.30;;;2.78;;
64799;SDS011;51233;51.982;4.594;2023-03-14T04:05:19;8.52;;;2.35;;
64799;SDS011;51233;51.982;4.594;2023-03-14T04:08:19;8.60;;;2.70;;
64799;SDS011;51233;51.982;4.594;2023-03-14T04:11:19;6.70;;;1.48;;
64799;SDS011;51233;51.982;4.594;2023-03-14T04:14:19;6.03;;;2.10;;
64799;SDS011;51233;51.982;4.594;2023-03-14T04:17:19;5.50;;;1.90;;
64799;SDS011;51233;51.982;4.594;2023-03-14T04:20:20;8.67;;;2.67;;
64799;SDS011;51233;51.982;4.594;2023-03-14T04:23:20;7.32;;;2.38;;
64799;SDS011;51233;51.982;4.594;2023-03-14T04:26:24;10.23;;;2.45;;
64799;SDS011;51233;51.982;4.594;2023-03-14T04:29:24;8.67;;;2.47;;
64799;SDS011;51233;51.982;4.594;2023-03-14T04:32:24;9.27;;;2.17;;
64799;SDS011;51233;51.982;4.594;2023-03-14T04:35:24;5.10;;;2.03;;
64799;SDS011;51233;51.982;4.594;2023-03-14T04:38:24;4.10;;;1.63;;
64799;SDS011;51233;51.982;4.594;2023-03-14T04:41:24;9.88;;;2.33;;
64799;SDS011;51233;51.982;4.594;2023-03-14T04:44:25;6.33;;;2.23;;
64799;SDS011;51233;51.982;4.594;2023-03-14T04:47:25;4.32;;;1.70;;
64799;SDS011;51233;51.982;4.594;2023-03-14T04:50:25;6.43;;;1.75;;
64799;SDS011;51233;51.982;4.594;2023-03-14T04:53:25;5.00;;;1.65;;
64799;SDS011;51233;51.982;4.594;2023-03-14T04:56:26;8.15;;;2.08;;
64799;SDS011;51233;51.982;4.594;2023-03-14T04:59:27;4.35;;;1.80;;
64799;SDS011;51233;51.982;4.594;2023-03-14T05:02:27;7.97;;;2.20;;
64799;SDS011;51233;51.982;4.594;2023-03-14T05:05:27;3.92;;;1.85;;
64799;SDS011;51233;51.982;4.594;2023-03-14T05:08:27;5.22;;;2.17;;
64799;SDS011;51233;51.982;4.594;2023-03-14T05:11:28;3.70;;;1.40;;
64799;SDS011;51233;51.982;4.594;2023-03-14T05:14:29;5.83;;;2.00;;
64799;SDS011;51233;51.982;4.594;2023-03-14T05:17:29;4.55;;;1.58;;
64799;SDS011;51233;51.982;4.594;2023-03-14T05:20:30;5.83;;;2.10;;
64799;SDS011;51233;51.982;4.594;2023-03-14T05:23:30;5.00;;;1.77;;
64799;SDS011;51233;51.982;4.594;2023-03-14T05:26:33;5.57;;;2.07;;
64799;SDS011;51233;51.982;4.594;2023-03-14T05:29:33;5.07;;;1.80;;
64799;SDS011;51233;51.982;4.594;2023-03-14T05:32:33;4.35;;;1.58;;
64799;SDS011;51233;51.982;4.594;2023-03-14T05:35:34;2.15;;;1.48;;
64799;SDS011;51233;51.982;4.594;2023-03-14T05:38:34;4.03;;;1.80;;
64799;SDS011;51233;51.982;4.594;2023-03-14T05:41:34;3.03;;;1.27;;
64799;SDS011;51233;51.982;4.594;2023-03-14T05:44:35;3.55;;;1.05;;
64799;SDS011;51233;51.982;4.594;2023-03-14T05:47:35;3.75;;;1.25;;
64799;SDS011;51233;51.982;4.594;2023-03-14T05:50:36;2.33;;;0.73;;
64799;SDS011;51233;51.982;4.594;2023-03-14T05:53:36;2.22;;;0.60;;
64799;SDS011;51233;51.982;4.594;2023-03-14T05:56:36;1.75;;;0.90;;
64799;SDS011;51233;51.982;4.594;2023-03-14T05:59:37;1.02;;;0.68;;
64799;SDS011;51233;51.982;4.594;2023-03-14T06:02:37;2.27;;;1.17;;
64799;SDS011;51233;51.982;4.594;2023-03-14T06:05:40;1.10;;;0.55;;
64799;SDS011;51233;51.982;4.594;2023-03-14T06:08:40;3.20;;;0.85;;
64799;SDS011;51233;51.982;4.594;2023-03-14T06:11:40;3.03;;;0.67;;
64799;SDS011;51233;51.982;4.594;2023-03-14T06:14:42;2.15;;;0.82;;
64799;SDS011;51233;51.982;4.594;2023-03-14T06:17:45;4.10;;;0.90;;
64799;SDS011;51233;51.982;4.594;2023-03-14T06:20:45;2.35;;;0.70;;
64799;SDS011;51233;51.982;4.594;2023-03-14T06:23:48;3.30;;;0.70;;
64799;SDS011;51233;51.982;4.594;2023-03-14T06:26:48;3.83;;;0.95;;
64799;SDS011;51233;51.982;4.594;2023-03-14T06:29:48;5.47;;;0.90;;
64799;SDS011;51233;51.982;4.594;2023-03-14T06:32:48;1.23;;;0.70;;
64799;SDS011;51233;51.982;4.594;2023-03-14T06:35:49;4.17;;;0.93;;
64799;SDS011;51233;51.982;4.594;2023-03-14T06:38:49;2.08;;;0.70;;
64799;SDS011;51233;51.982;4.594;2023-03-14T06:41:49;3.40;;;0.57;;
64799;SDS011;51233;51.982;4.594;2023-03-14T06:44:49;0.47;;;0.22;;
64799;SDS011;51233;51.982;4.594;2023-03-14T06:47:49;1.23;;;0.60;;
64799;SDS011;51233;51.982;4.594;2023-03-14T06:50:52;1.20;;;0.73;;
64799;SDS011;51233;51.982;4.594;2023-03-14T06:53:52;1.48;;;0.50;;
64799;SDS011;51233;51.982;4.594;2023-03-14T06:56:53;1.83;;;0.70;;
64799;SDS011;51233;51.982;4.594;2023-03-14T06:59:53;2.72;;;0.77;;
64799;SDS011;51233;51.982;4.594;2023-03-14T07:02:53;2.28;;;1.02;;
64799;SDS011;51233;51.982;4.594;2023-03-14T07:05:56;5.38;;;0.95;;
64799;SDS011;51233;51.982;4.594;2023-03-14T07:08:56;4.45;;;0.90;;
64799;SDS011;51233;51.982;4.594;2023-03-14T07:12:00;2.75;;;0.90;;
64799;SDS011;51233;51.982;4.594;2023-03-14T07:15:00;6.05;;;1.38;;
64799;SDS011;51233;51.982;4.594;2023-03-14T07:18:03;3.00;;;0.82;;
64799;SDS011;51233;51.982;4.594;2023-03-14T07:21:04;3.58;;;0.90;;
64799;SDS011;51233;51.982;4.594;2023-03-14T07:24:04;3.27;;;1.00;;
64799;SDS011;51233;51.982;4.594;2023-03-14T07:27:08;6.07;;;1.05;;
64799;SDS011;51233;51.982;4.594;2023-03-14T07:30:08;4.16;;;1.02;;
64799;SDS011;51233;51.982;4.594;2023-03-14T07:33:08;3.17;;;0.82;;
64799;SDS011;51233;51.982;4.594;2023-03-14T07:36:08;6.18;;;1.10;;
64799;SDS011;51233;51.982;4.594;2023-03-14T07:39:09;0.60;;;0.50;;
64799;SDS011;51233;51.982;4.594;2023-03-14T07:42:09;0.60;;;0.47;;
64799;SDS011;51233;51.982;4.594;2023-03-14T07:45:11;0.85;;;0.47;;
64799;SDS011;51233;51.982;4.594;2023-03-14T07:48:11;1.77;;;0.40;;
64799;SDS011;51233;51.982;4.594;2023-03-14T07:51:13;2.75;;;0.85;;
64799;SDS011;51233;51.982;4.594;2023-03-14T07:54:14;0.30;;;0.30;;
64799;SDS011;51233;51.982;4.594;2023-03-14T07:57:14;1.05;;;0.82;;
64799;SDS011;51233;51.982;4.594;2023-03-14T08:00:14;0.57;;;0.57;;
64799;SDS011;51233;51.982;4.594;2023-03-14T08:03:14;1.03;;;0.60;;
64799;SDS011;51233;51.982;4.594;2023-03-14T08:06:15;0.77;;;0.47;;
64799;SDS011;51233;51.982;4.594;2023-03-14T08:09:15;0.30;;;0.30;;
64799;SDS011;51233;51.982;4.594;2023-03-14T08:12:15;0.83;;;0.70;;
64799;SDS011;51233;51.982;4.594;2023-03-14T08:15:16;0.53;;;0.40;;
64799;SDS011;51233;51.982;4.594;2023-03-14T08:18:16;0.60;;;0.60;;
64799;SDS011;51233;51.982;4.594;2023-03-14T08:21:16;0.50;;;0.50;;
64799;SDS011;51233;51.982;4.594;2023-03-14T08:24:17;0.90;;;0.67;;
64799;SDS011;51233;51.982;4.594;2023-03-14T08:27:17;3.92;;;0.65;;
64799;SDS011;51233;51.982;4.594;2023-03-14T08:30:18;1.23;;;0.93;;
64799;SDS011;51233;51.982;4.594;2023-03-14T08:33:18;0.63;;;0.57;;
64799;SDS011;51233;51.982;4.594;2023-03-14T08:36:18;0.20;;;0.20;;
64799;SDS011;51233;51.982;4.594;2023-03-14T08:39:19;0.57;;;0.30;;
64799;SDS011;51233;51.982;4.594;2023-03-14T08:42:19;0.43;;;0.43;;
64799;SDS011;51233;51.982;4.594;2023-03-14T08:45:19;0.30;;;0.30;;
64799;SDS011;51233;51.982;4.594;2023-03-14T08:48:19;0.40;;;0.40;;
64799;SDS011;51233;51.982;4.594;2023-03-14T08:51:20;0.50;;;0.50;;
64799;SDS011;51233;51.982;4.594;2023-03-14T08:54:20;0.13;;;0.13;;
64799;SDS011;51233;51.982;4.594;2023-03-14T08:57:20;1.13;;;0.50;;
64799;SDS011;51233;51.982;4.594;2023-03-14T09:00:27;0.98;;;0.43;;
64799;SDS011;51233;51.982;4.594;2023-03-14T09:03:27;3.08;;;1.00;;
64799;SDS011;51233;51.982;4.594;2023-03-14T09:06:28;0.65;;;0.32;;
64799;SDS011;51233;51.982;4.594;2023-03-14T09:09:28;0.38;;;0.38;;
64799;SDS011;51233;51.982;4.594;2023-03-14T09:12:28;6.75;;;1.60;;
64799;SDS011;51233;51.982;4.594;2023-03-14T09:15:28;2.70;;;1.20;;
64799;SDS011;51233;51.982;4.594;2023-03-14T09:18:29;0.93;;;0.60;;
64799;SDS011;51233;51.982;4.594;2023-03-14T09:21:29;2.23;;;0.50;;
64799;SDS011;51233;51.982;4.594;2023-03-14T09:24:29;1.43;;;0.60;;
64799;SDS011;51233;51.982;4.594;2023-03-14T09:27:29;0.30;;;0.30;;
64799;SDS011;51233;51.982;4.594;2023-03-14T09:30:29;1.18;;;0.48;;
64799;SDS011;51233;51.982;4.594;2023-03-14T09:33:30;4.50;;;1.65;;
64799;SDS011;51233;51.982;4.594;2023-03-14T09:36:30;3.08;;;0.63;;
64799;SDS011;51233;51.982;4.594;2023-03-14T09:39:30;0.37;;;0.37;;
64799;SDS011;51233;51.982;4.594;2023-03-14T09:42:30;2.25;;;1.27;;
64799;SDS011;51233;51.982;4.594;2023-03-14T09:45:31;0.70;;;0.70;;
64799;SDS011;51233;51.982;4.594;2023-03-14T09:48:33;1.80;;;0.82;;
64799;SDS011;51233;51.982;4.594;2023-03-14T09:51:33;0.90;;;0.75;;
64799;SDS011;51233;51.982;4.594;2023-03-14T09:54:44;1.47;;;0.93;;
64799;SDS011;51233;51.982;4.594;2023-03-14T09:57:46;0.70;;;0.38;;
64799;SDS011;51233;51.982;4.594;2023-03-14T10:00:52;0.32;;;0.32;;
64799;SDS011;51233;51.982;4.594;2023-03-14T10:03:56;0.38;;;0.38;;
64799;SDS011;51233;51.982;4.594;2023-03-14T10:06:56;4.80;;;1.30;;
64799;SDS011;51233;51.982;4.594;2023-03-14T10:09:57;0.78;;;0.62;;
64799;SDS011;51233;51.982;4.594;2023-03-14T10:12:58;0.35;;;0.32;;
64799;SDS011;51233;51.982;4.594;2023-03-14T10:16:03;1.70;;;0.80;;
64799;SDS011;51233;51.982;4.594;2023-03-14T10:19:07;1.13;;;0.50;;
64799;SDS011;51233;51.982;4.594;2023-03-14T10:22:11;0.98;;;0.77;;
64799;SDS011;51233;51.982;4.594;2023-03-14T10:25:23;3.13;;;1.23;;
64799;SDS011;51233;51.982;4.594;2023-03-14T10:28:26;0.68;;;0.57;;
64799;SDS011;51233;51.982;4.594;2023-03-14T10:31:26;0.43;;;0.43;;
64799;SDS011;51233;51.982;4.594;2023-03-14T10:34:30;1.30;;;0.90;;
64799;SDS011;51233;51.982;4.594;2023-03-14T10:37:30;0.35;;;0.35;;
64799;SDS011;51233;51.982;4.594;2023-03-14T10:40:37;0.30;;;0.30;;
64799;SDS011;51233;51.982;4.594;2023-03-14T10:43:38;0.55;;;0.55;;
64799;SDS011;51233;51.982;4.594;2023-03-14T10:46:38;0.80;;;0.52;;
64799;SDS011;51233;51.982;4.594;2023-03-14T10:49:39;5.40;;;1.57;;
64799;SDS011;51233;51.982;4.594;2023-03-14T10:52:39;4.10;;;0.77;;
64799;SDS011;51233;51.982;4.594;2023-03-14T10:55:46;14.70;;;2.47;;
64799;SDS011;51233;51.982;4.594;2023-03-14T10:58:50;0.66;;;0.66;;
64799;SDS011;51233;51.982;4.594;2023-03-14T11:01:53;7.63;;;1.42;;
64799;SDS011;51233;51.982;4.594;2023-03-14T11:08:02;1.00;;;0.50;;
64799;SDS011;51233;51.982;4.594;2023-03-14T11:11:11;3.63;;;1.13;;
64799;SDS011;51233;51.982;4.594;2023-03-14T11:14:34;0.80;;;0.30;;
64799;SDS011;51233;51.982;4.594;2023-03-14T11:20:42;2.60;;;0.73;;
64799;SDS011;51233;51.982;4.594;2023-03-14T11:27:00;8.02;;;1.85;;
64799;SDS011;51233;51.982;4.594;2023-03-14T11:30:12;0.75;;;0.47;;
64799;SDS011;51233;51.982;4.594;2023-03-14T11:33:17;3.45;;;1.02;;
64799;SDS011;51233;51.982;4.594;2023-03-14T11:36:22;1.58;;;0.85;;
64799;SDS011;51233;51.982;4.594;2023-03-14T11:39:34;2.85;;;1.08;;
64799;SDS011;51233;51.982;4.594;2023-03-14T11:42:37;0.55;;;0.55;;
64799;SDS011;51233;51.982;4.594;2023-03-14T11:45:39;1.95;;;0.93;;
64799;SDS011;51233;51.982;4.594;2023-03-14T11:48:48;1.70;;;0.80;;
64799;SDS011;51233;51.982;4.594;2023-03-14T11:51:56;10.38;;;1.90;;
64799;SDS011;51233;51.982;4.594;2023-03-14T11:58:20;0.73;;;0.70;;
64799;SDS011;51233;51.982;4.594;2023-03-14T12:01:24;5.10;;;1.35;;
64799;SDS011;51233;51.982;4.594;2023-03-14T12:04:46;4.53;;;1.27;;
64799;SDS011;51233;51.982;4.594;2023-03-14T12:08:00;4.55;;;1.17;;
64799;SDS011;51233;51.982;4.594;2023-03-14T12:14:15;2.63;;;1.00;;
64799;SDS011;51233;51.982;4.594;2023-03-14T12:17:21;5.03;;;1.38;;
64799;SDS011;51233;51.982;4.594;2023-03-14T12:20:22;8.82;;;1.65;;
64799;SDS011;51233;51.982;4.594;2023-03-14T12:23:24;0.70;;;0.55;;
64799;SDS011;51233;51.982;4.594;2023-03-14T12:26:44;5.87;;;1.03;;
64799;SDS011;51233;51.982;4.594;2023-03-14T12:29:59;5.65;;;1.52;;
64799;SDS011;51233;51.982;4.594;2023-03-14T12:36:11;2.40;;;0.90;;
64799;SDS011;51233;51.982;4.594;2023-03-14T12:45:31;4.90;;;1.60;;
64799;SDS011;51233;51.982;4.594;2023-03-14T12:48:32;1.08;;;0.60;;
64799;SDS011;51233;51.982;4.594;2023-03-14T12:51:39;0.67;;;0.60;;
64799;SDS011;51233;51.982;4.594;2023-03-14T12:54:57;1.27;;;0.73;;
64799;SDS011;51233;51.982;4.594;2023-03-14T12:58:24;0.65;;;0.52;;
64799;SDS011;51233;51.982;4.594;2023-03-14T13:01:21;2.92;;;0.60;;
64799;SDS011;51233;51.982;4.594;2023-03-14T13:04:28;1.58;;;0.55;;
64799;SDS011;51233;51.982;4.594;2023-03-14T13:10:45;3.30;;;0.60;;
64799;SDS011;51233;51.982;4.594;2023-03-14T13:13:48;1.65;;;0.90;;
64799;SDS011;51233;51.982;4.594;2023-03-14T13:16:49;1.80;;;0.80;;
64799;SDS011;51233;51.982;4.594;2023-03-14T13:19:53;4.35;;;1.02;;
64799;SDS011;51233;51.982;4.594;2023-03-14T13:22:54;1.58;;;0.68;;
64799;SDS011;51233;51.982;4.594;2023-03-14T13:25:55;2.63;;;1.10;;
64799;SDS011;51233;51.982;4.594;2023-03-14T13:28:55;4.93;;;1.07;;
64799;SDS011;51233;51.982;4.594;2023-03-14T13:31:56;0.90;;;0.40;;
64799;SDS011;51233;51.982;4.594;2023-03-14T13:34:58;1.83;;;0.55;;
64799;SDS011;51233;51.982;4.594;2023-03-14T13:37:59;3.73;;;0.63;;
64799;SDS011;51233;51.982;4.594;2023-03-14T13:41:00;0.57;;;0.55;;
64799;SDS011;51233;51.982;4.594;2023-03-14T13:44:05;1.02;;;0.60;;
64799;SDS011;51233;51.982;4.594;2023-03-14T13:47:25;2.65;;;0.80;;
64799;SDS011;51233;51.982;4.594;2023-03-14T13:50:26;5.05;;;0.95;;
64799;SDS011;51233;51.982;4.594;2023-03-14T13:53:26;3.13;;;0.63;;
64799;SDS011;51233;51.982;4.594;2023-03-14T13:56:28;3.03;;;1.00;;
64799;SDS011;51233;51.982;4.594;2023-03-14T13:59:29;6.65;;;1.30;;
64799;SDS011;51233;51.982;4.594;2023-03-14T14:02:29;4.78;;;1.30;;
64799;SDS011;51233;51.982;4.594;2023-03-14T14:05:30;0.93;;;0.70;;
64799;SDS011;51233;51.982;4.594;2023-03-14T14:11:37;9.25;;;1.77;;
64799;SDS011;51233;51.982;4.594;2023-03-14T14:14:43;0.98;;;0.80;;
64799;SDS011;51233;51.982;4.594;2023-03-14T14:17:49;6.65;;;1.60;;
64799;SDS011;51233;51.982;4.594;2023-03-14T14:20:51;4.90;;;1.30;;
64799;SDS011;51233;51.982;4.594;2023-03-14T14:23:51;6.97;;;1.30;;
64799;SDS011;51233;51.982;4.594;2023-03-14T14:26:58;12.53;;;1.60;;
64799;SDS011;51233;51.982;4.594;2023-03-14T14:30:06;8.23;;;1.20;;
64799;SDS011;51233;51.982;4.594;2023-03-14T14:33:10;2.15;;;0.80;;
64799;SDS011;51233;51.982;4.594;2023-03-14T14:36:14;4.40;;;1.38;;
64799;SDS011;51233;51.982;4.594;2023-03-14T14:42:20;4.03;;;1.17;;
64799;SDS011;51233;51.982;4.594;2023-03-14T14:45:23;1.27;;;0.50;;
64799;SDS011;51233;51.982;4.594;2023-03-14T14:48:25;2.57;;;0.87;;
64799;SDS011;51233;51.982;4.594;2023-03-14T14:51:26;5.78;;;1.05;;
64799;SDS011;51233;51.982;4.594;2023-03-14T14:54:34;1.38;;;0.93;;
64799;SDS011;51233;51.982;4.594;2023-03-14T14:57:37;3.25;;;1.13;;
64799;SDS011;51233;51.982;4.594;2023-03-14T15:00:40;5.35;;;1.40;;
64799;SDS011;51233;51.982;4.594;2023-03-14T15:03:41;4.07;;;1.27;;
64799;SDS011;51233;51.982;4.594;2023-03-14T15:06:44;2.08;;;0.90;;
64799;SDS011;51233;51.982;4.594;2023-03-14T15:09:46;7.45;;;1.63;;
64799;SDS011;51233;51.982;4.594;2023-03-14T15:12:46;1.27;;;0.60;;
64799;SDS011;51233;51.982;4.594;2023-03-14T15:15:52;2.58;;;0.85;;
64799;SDS011;51233;51.982;4.594;2023-03-14T15:19:00;8.52;;;1.75;;
64799;SDS011;51233;51.982;4.594;2023-03-14T15:22:00;2.25;;;0.70;;
64799;SDS011;51233;51.982;4.594;2023-03-14T15:25:00;6.13;;;1.03;;
64799;SDS011;51233;51.982;4.594;2023-03-14T15:28:01;2.65;;;0.77;;
64799;SDS011;51233;51.982;4.594;2023-03-14T15:31:01;2.83;;;0.70;;
64799;SDS011;51233;51.982;4.594;2023-03-14T15:34:01;7.55;;;0.88;;
64799;SDS011;51233;51.982;4.594;2023-03-14T15:37:01;5.13;;;0.87;;
64799;SDS011;51233;51.982;4.594;2023-03-14T15:40:09;8.00;;;1.67;;
64799;SDS011;51233;51.982;4.594;2023-03-14T15:43:13;9.50;;;1.58;;
64799;SDS011;51233;51.982;4.594;2023-03-14T15:46:14;3.67;;;1.23;;
64799;SDS011;51233;51.982;4.594;2023-03-14T15:49:14;4.67;;;1.33;;
64799;SDS011;51233;51.982;4.594;2023-03-14T15:52:14;0.82;;;0.45;;
64799;SDS011;51233;51.982;4.594;2023-03-14T15:55:14;1.90;;;0.75;;
64799;SDS011;51233;51.982;4.594;2023-03-14T15:58:16;2.57;;;0.67;;
64799;SDS011;51233;51.982;4.594;2023-03-14T16:01:16;3.53;;;1.45;;
64799;SDS011;51233;51.982;4.594;2023-03-14T16:04:17;6.30;;;1.90;;
64799;SDS011;51233;51.982;4.594;2023-03-14T16:07:17;6.17;;;1.73;;
64799;SDS011;51233;51.982;4.594;2023-03-14T16:10:17;11.35;;;2.00;;
64799;SDS011;51233;51.982;4.594;2023-03-14T16:13:17;7.17;;;1.53;;
64799;SDS011;51233;51.982;4.594;2023-03-14T16:16:18;2.43;;;0.90;;
64799;SDS011;51233;51.982;4.594;2023-03-14T16:19:18;3.53;;;0.80;;
64799;SDS011;51233;51.982;4.594;2023-03-14T16:22:18;6.97;;;1.77;;
64799;SDS011;51233;51.982;4.594;2023-03-14T16:25:19;6.17;;;1.50;;
64799;SDS011;51233;51.982;4.594;2023-03-14T16:28:19;4.90;;;1.20;;
64799;SDS011;51233;51.982;4.594;2023-03-14T16:31:20;3.40;;;1.00;;
64799;SDS011;51233;51.982;4.594;2023-03-14T16:34:22;2.53;;;0.95;;
64799;SDS011;51233;51.982;4.594;2023-03-14T16:37:23;5.60;;;1.30;;
64799;SDS011;51233;51.982;4.594;2023-03-14T16:40:23;5.87;;;1.37;;
64799;SDS011;51233;51.982;4.594;2023-03-14T16:43:24;3.83;;;1.20;;
64799;SDS011;51233;51.982;4.594;2023-03-14T16:46:24;4.70;;;1.20;;
64799;SDS011;51233;51.982;4.594;2023-03-14T16:49:26;10.00;;;1.63;;
64799;SDS011;51233;51.982;4.594;2023-03-14T16:52:26;5.55;;;1.35;;
64799;SDS011;51233;51.982;4.594;2023-03-14T16:55:26;7.95;;;2.00;;
64799;SDS011;51233;51.982;4.594;2023-03-14T16:58:26;6.13;;;1.42;;
64799;SDS011;51233;51.982;4.594;2023-03-14T17:01:26;4.63;;;1.57;;
64799;SDS011;51233;51.982;4.594;2023-03-14T17:04:27;10.97;;;1.47;;
64799;SDS011;51233;51.982;4.594;2023-03-14T17:07:27;8.32;;;1.48;;
64799;SDS011;51233;51.982;4.594;2023-03-14T17:10:27;7.05;;;1.40;;
64799;SDS011;51233;51.982;4.594;2023-03-14T17:13:27;5.67;;;1.33;;
64799;SDS011;51233;51.982;4.594;2023-03-14T17:16:27;6.10;;;1.35;;
64799;SDS011;51233;51.982;4.594;2023-03-14T17:19:28;5.33;;;1.83;;
64799;SDS011;51233;51.982;4.594;2023-03-14T17:22:28;3.40;;;1.03;;
64799;SDS011;51233;51.982;4.594;2023-03-14T17:25:28;4.07;;;1.00;;
64799;SDS011;51233;51.982;4.594;2023-03-14T17:28:29;5.32;;;1.45;;
64799;SDS011;51233;51.982;4.594;2023-03-14T17:31:29;6.33;;;2.03;;
64799;SDS011;51233;51.982;4.594;2023-03-14T17:34:29;6.72;;;1.33;;
64799;SDS011;51233;51.982;4.594;2023-03-14T17:37:30;8.27;;;1.83;;
64799;SDS011;51233;51.982;4.594;2023-03-14T17:40:30;7.07;;;1.60;;
64799;SDS011;51233;51.982;4.594;2023-03-14T17:43:31;5.07;;;1.57;;
64799;SDS011;51233;51.982;4.594;2023-03-14T17:46:35;5.78;;;1.60;;
64799;SDS011;51233;51.982;4.594;2023-03-14T17:49:38;5.75;;;1.50;;
64799;SDS011;51233;51.982;4.594;2023-03-14T17:52:40;9.30;;;1.90;;
64799;SDS011;51233;51.982;4.594;2023-03-14T17:55:41;7.77;;;1.37;;
64799;SDS011;51233;51.982;4.594;2023-03-14T17:58:41;3.67;;;1.40;;
64799;SDS011;51233;51.982;4.594;2023-03-14T18:01:43;8.18;;;1.27;;
64799;SDS011;51233;51.982;4.594;2023-03-14T18:04:43;12.30;;;1.50;;
64799;SDS011;51233;51.982;4.594;2023-03-14T18:07:43;2.70;;;1.30;;
64799;SDS011;51233;51.982;4.594;2023-03-14T18:10:43;5.65;;;1.30;;
64799;SDS011;51233;51.982;4.594;2023-03-14T18:13:44;5.68;;;1.67;;
64799;SDS011;51233;51.982;4.594;2023-03-14T18:16:44;7.33;;;1.70;;
64799;SDS011;51233;51.982;4.594;2023-03-14T18:19:47;9.25;;;1.63;;
64799;SDS011;51233;51.982;4.594;2023-03-14T18:22:48;3.93;;;1.57;;
64799;SDS011;51233;51.982;4.594;2023-03-14T18:25:48;11.87;;;2.13;;
64799;SDS011;51233;51.982;4.594;2023-03-14T18:28:50;12.07;;;1.90;;
64799;SDS011;51233;51.982;4.594;2023-03-14T18:31:50;4.43;;;1.88;;
64799;SDS011;51233;51.982;4.594;2023-03-14T18:34:53;5.97;;;1.40;;
64799;SDS011;51233;51.982;4.594;2023-03-14T18:37:53;4.85;;;1.58;;
64799;SDS011;51233;51.982;4.594;2023-03-14T18:41:03;7.95;;;1.60;;
64799;SDS011;51233;51.982;4.594;2023-03-14T18:44:03;6.57;;;1.77;;
64799;SDS011;51233;51.982;4.594;2023-03-14T18:47:03;9.82;;;2.08;;
64799;SDS011;51233;51.982;4.594;2023-03-14T18:50:04;11.77;;;2.15;;
64799;SDS011;51233;51.982;4.594;2023-03-14T18:53:05;8.67;;;2.27;;
64799;SDS011;51233;51.982;4.594;2023-03-14T18:56:05;4.32;;;1.75;;
64799;SDS011;51233;51.982;4.594;2023-03-14T18:59:06;8.90;;;2.50;;